»·PEaware :: N8727N KBFL-KCMA

N8727N :: KBFL-KCMA

FLIGHT INFORMATION

Flight Status: Arrived
Operator: Privately registered:
United States
More flights under this callsign
Pilot: Jonas V. (19294)
Aircraft: BEECH AIRCRAFT BARON
(BE58)
More flights by this aircraft type
Origin: KBFL Meadows
United States
Destination: KCMA Camarillo
United States
More flights between these airports :: More routes between these airports
Route: +MARIC4 GMN V299 FIM
File this flight plan on PilotEdge
Remarks:
Altitude:
(Current/Filed)
11,000ft
Speed:
(Current/Filed)
220kts
Departed: 11-Jan-19 05:19 PM
Arrived: 11-Jan-19 06:05 PM
Distance/Time
Traveled:
73nm/0:46
Distance/Time
To Go:
Arrived

Flight Plot

Page will automatically refresh every two minutes.


Map Options




Map Legend


Flown Route
Filed Route
Departure Airport
Arrival Airport
Navaid (VOR, NDB)
Fix

Horizontal Profiles

Position Reports

Time Latitude Longitude Heading Altitude Ground
Speed
11-Jan-19 17:03 35.429376 -119.046095 226 509ft 0kts
11-Jan-19 17:04 35.429376 -119.046095 226 509ft 0kts
11-Jan-19 17:05 35.429376 -119.046095 226 509ft 0kts
11-Jan-19 17:06 35.429376 -119.046095 226 509ft 0kts
11-Jan-19 17:07 35.429376 -119.046095 226 509ft 0kts
11-Jan-19 17:08 35.429376 -119.046095 226 509ft 0kts
11-Jan-19 17:09 35.429376 -119.046095 225 509ft 0kts
11-Jan-19 17:10 35.429376 -119.046095 225 509ft 0kts
11-Jan-19 17:11 35.429376 -119.046095 225 509ft 0kts
11-Jan-19 17:12 35.429376 -119.046095 225 509ft 0kts
11-Jan-19 17:13 35.429376 -119.046095 225 509ft 0kts
11-Jan-19 17:14 35.429129 -119.046200 200 509ft 9kts
11-Jan-19 17:15 35.426254 -119.044790 136 509ft 16kts
11-Jan-19 17:16 35.425775 -119.044686 226 509ft 0kts
11-Jan-19 17:17 35.425775 -119.044686 226 509ft 0kts
11-Jan-19 17:18 35.428903 -119.050181 315 509ft 46kts
11-Jan-19 17:19 35.439335 -119.062772 315 509ft 53kts
11-Jan-19 17:20 35.437409 -119.060520 137 510ft 87kts
11-Jan-19 17:21 35.411540 -119.059091 244 2053ft 151kts
11-Jan-19 17:22 35.402124 -119.113440 253 3059ft 186kts
11-Jan-19 17:23 35.381670 -119.172638 206 3071ft 191kts
11-Jan-19 17:24 35.338466 -119.205214 189 3781ft 159kts
11-Jan-19 17:25 35.303124 -119.190586 150 5122ft 131kts
11-Jan-19 17:26 35.271284 -119.169834 150 6286ft 129kts
11-Jan-19 17:27 35.240222 -119.149210 150 7384ft 126kts
11-Jan-19 17:28 35.209728 -119.128957 151 8417ft 124kts
11-Jan-19 17:29 35.179899 -119.109131 152 9383ft 122kts
11-Jan-19 17:30 35.150176 -119.089415 153 10295ft 121kts
11-Jan-19 17:31 35.120643 -119.069873 154 11009ft 130kts
11-Jan-19 17:32 35.085789 -119.046917 154 10998ft 153kts
11-Jan-19 17:33 35.047831 -119.022293 153 11033ft 155kts
11-Jan-19 17:34 35.009589 -118.996672 154 11016ft 159kts
11-Jan-19 17:35 34.970697 -118.970977 154 11027ft 159kts
11-Jan-19 17:36 34.931340 -118.945060 154 10936ft 164kts
11-Jan-19 17:37 34.891771 -118.919004 155 10948ft 162kts
11-Jan-19 17:38 34.852115 -118.892948 155 10968ft 163kts
11-Jan-19 17:39 34.812345 -118.866847 155 10986ft 164kts
11-Jan-19 17:40 34.768196 -118.863253 181 10996ft 161kts
11-Jan-19 17:41 34.723263 -118.865046 182 11003ft 161kts
11-Jan-19 17:42 34.678379 -118.867045 182 11001ft 162kts
11-Jan-19 17:43 34.633366 -118.869045 182 10997ft 162kts
11-Jan-19 17:44 34.588167 -118.870857 182 10993ft 162kts
11-Jan-19 17:45 34.543360 -118.872797 182 9549ft 149kts
11-Jan-19 17:46 34.508641 -118.874246 182 7361ft 121kts
11-Jan-19 17:47 34.473674 -118.875818 182 4971ft 131kts
11-Jan-19 17:48 34.434891 -118.877720 182 5047ft 159kts
11-Jan-19 17:49 34.389039 -118.879826 182 5041ft 167kts
11-Jan-19 17:50 34.343160 -118.875126 152 4971ft 174kts
11-Jan-19 17:51 34.305265 -118.839711 149 4486ft 168kts
11-Jan-19 17:52 34.266032 -118.809332 150 4624ft 170kts
11-Jan-19 17:53 34.235017 -118.769939 112 4531ft 175kts
11-Jan-19 17:54 34.222231 -118.715979 79 4403ft 173kts
11-Jan-19 17:55 34.255592 -118.719405 272 4413ft 168kts
11-Jan-19 17:57 34.256045 -118.775270 258 4384ft 166kts
11-Jan-19 17:58 34.248380 -118.829527 254 4044ft 158kts
11-Jan-19 17:59 34.240503 -118.879429 256 3374ft 141kts
11-Jan-19 18:00 34.233646 -118.926345 257 2251ft 141kts
11-Jan-19 18:01 34.227417 -118.970934 260 1970ft 132kts
11-Jan-19 18:02 34.222387 -119.013713 255 1404ft 127kts
11-Jan-19 18:03 34.217198 -119.053983 255 832ft 109kts
11-Jan-19 18:04 34.213794 -119.088557 269 80ft 84kts
11-Jan-19 18:05 34.211296 -119.095109 131 80ft 19kts

Navigation Log

Ident Type
Flight plan parsing failed, navigation log unavailable